Time;durP1;ratioP1;P1;durP2;ratioP2;P2;SDS_P1;SDS_P2;PMS_P1;PMS_P2;Temp;Humidity;BMP_temperature;BMP_pressure;BME280_temperature;BME280_humidity;BME280_pressure;Samples;Min_cycle;Max_cycle;Signal;HPM_P1;HPM_P2
2022/04/16 00:01:49;;;;;;;25.25;18.08;;;8.20;99.90;;;;;;4995285;28;20089;-72
2022/04/16 00:04:15;;;;;;;25.42;18.42;;;8.10;99.90;;;;;;4995022;28;20050;-71
2022/04/16 00:06:40;;;;;;;27.80;17.80;;;8.20;99.90;;;;;;4995107;28;20050;-73
2022/04/16 00:09:06;;;;;;;26.98;18.13;;;7.90;99.90;;;;;;4994655;28;20107;-71
2022/04/16 00:11:32;;;;;;;25.25;18.13;;;7.80;99.90;;;;;;4995227;28;20445;-73
2022/04/16 00:13:58;;;;;;;29.73;18.70;;;7.70;99.90;;;;;;4994820;28;20395;-71
2022/04/16 00:16:25;;;;;;;25.08;18.13;;;7.70;99.90;;;;;;4977849;28;20065;-72
2022/04/16 00:18:50;;;;;;;27.08;17.52;;;7.60;99.90;;;;;;4994752;28;20046;-72
2022/04/16 00:21:17;;;;;;;27.08;17.08;;;7.50;99.90;;;;;;4997873;28;20054;-72
2022/04/16 00:23:43;;;;;;;27.90;17.73;;;7.40;99.90;;;;;;4998193;28;20064;-72
2022/04/16 00:26:12;;;;;;;28.63;18.15;;;7.40;99.90;;;;;;4999278;28;20050;-73
2022/04/16 00:28:38;;;;;;;28.80;18.17;;;7.30;99.90;;;;;;4998650;28;20117;-73
2022/04/16 00:31:04;;;;;;;28.88;17.95;;;7.30;99.90;;;;;;4980664;28;20061;-72
2022/04/16 00:33:31;;;;;;;27.70;18.88;;;7.30;99.90;;;;;;4998720;28;20462;-72
2022/04/16 00:35:56;;;;;;;26.42;17.38;;;7.20;99.90;;;;;;4998353;28;20046;-73
2022/04/16 00:38:22;;;;;;;29.77;18.33;;;7.30;99.90;;;;;;4998174;28;20069;-72
2022/04/16 00:40:47;;;;;;;27.45;18.42;;;7.30;99.90;;;;;;4997336;28;20054;-72
2022/04/16 00:43:20;;;;;;;27.60;18.48;;;7.30;99.90;;;;;;4981304;28;20046;-73
2022/04/16 00:45:47;;;;;;;30.13;18.58;;;7.30;99.90;;;;;;4998482;28;20167;-73
2022/04/16 00:48:12;;;;;;;31.35;20.17;;;7.30;99.90;;;;;;4997500;28;20100;-72
2022/04/16 00:50:39;;;;;;;31.38;18.90;;;7.20;99.90;;;;;;4998150;28;20050;-73
2022/04/16 00:53:05;;;;;;;34.28;20.80;;;7.20;99.90;;;;;;4997792;28;20050;-73
2022/04/16 00:55:35;;;;;;;29.55;19.13;;;7.20;99.90;;;;;;4998057;28;20088;-72
2022/04/16 00:58:01;;;;;;;30.38;20.67;;;7.10;99.90;;;;;;4980889;28;20046;-72
2022/04/16 01:00:27;;;;;;;30.38;20.27;;;7.00;99.90;;;;;;4997973;28;20050;-71
2022/04/16 01:02:52;;;;;;;33.75;20.42;;;7.00;99.90;;;;;;4998067;28;20034;-72
2022/04/16 01:05:19;;;;;;;38.90;21.77;;;6.90;99.90;;;;;;4997582;28;20050;-71
2022/04/16 01:07:53;;;;;;;35.53;20.92;;;6.90;99.90;;;;;;4997757;28;20352;-71
2022/04/16 01:10:19;;;;;;;;;;;6.80;99.90;;;;;;4981162;28;20046;-73
2022/04/16 01:12:45;;;;;;;33.55;20.90;;;6.70;99.90;;;;;;4998104;28;19922;-71
2022/04/16 01:15:13;;;;;;;31.85;21.13;;;6.70;99.90;;;;;;4997844;28;20057;-71
2022/04/16 01:17:39;;;;;;;32.67;21.10;;;6.60;99.90;;;;;;4997935;28;20398;-72
2022/04/16 01:20:05;;;;;;;31.08;20.40;;;6.60;99.90;;;;;;4997252;28;20057;-72
2022/04/16 01:22:31;;;;;;;29.42;19.58;;;6.50;99.90;;;;;;4997523;28;20052;-73
2022/04/16 01:25:00;;;;;;;35.58;20.02;;;6.40;99.90;;;;;;4996800;28;20055;-71
2022/04/16 01:27:25;;;;;;;29.88;19.55;;;6.40;99.90;;;;;;4997525;28;20050;-72
2022/04/16 01:29:53;;;;;;;31.98;21.73;;;6.30;99.90;;;;;;4996625;28;20494;-72
2022/04/16 01:32:19;;;;;;;35.40;20.38;;;6.30;99.90;;;;;;4978997;28;20061;-71
2022/04/16 01:34:45;;;;;;;33.35;20.85;;;6.20;99.90;;;;;;4997129;28;20050;-71
2022/04/16 01:37:12;;;;;;;33.50;22.35;;;6.20;99.90;;;;;;4996593;28;20046;-72
2022/04/16 01:39:38;;;;;;;35.63;21.80;;;6.10;99.90;;;;;;4997490;28;20125;-72
2022/04/16 01:42:04;;;;;;;31.33;20.20;;;6.00;99.90;;;;;;4996722;28;20092;-73
2022/04/16 01:44:29;;;;;;;40.75;20.80;;;6.00;99.90;;;;;;4997156;28;20039;-71
2022/04/16 01:46:56;;;;;;;28.70;19.67;;;5.90;99.90;;;;;;4997120;28;20051;-72
2022/04/16 01:49:22;;;;;;;36.33;23.05;;;5.90;99.90;;;;;;4996890;28;20065;-71
2022/04/16 01:51:48;;;;;;;32.03;21.30;;;5.80;99.90;;;;;;4997065;28;20050;-72
2022/04/16 01:54:14;;;;;;;35.38;22.52;;;5.80;99.90;;;;;;4996791;28;20054;-71
2022/04/16 01:56:40;;;;;;;36.58;21.95;;;5.80;99.90;;;;;;4979574;28;20046;-73
2022/04/16 01:59:08;;;;;;;33.67;20.90;;;5.80;99.90;;;;;;4996569;28;20065;-71
2022/04/16 02:01:34;;;;;;;35.25;22.27;;;5.70;99.90;;;;;;4979812;28;20050;-73
2022/04/16 02:04:01;;;;;;;33.85;22.73;;;5.70;99.90;;;;;;4997048;28;20348;-72
2022/04/16 02:06:26;;;;;;;35.45;21.83;;;5.60;99.90;;;;;;4979846;28;20064;-70
2022/04/16 02:08:52;;;;;;;35.30;21.17;;;5.60;99.90;;;;;;4996627;28;20463;-72
2022/04/16 02:11:18;;;;;;;30.45;19.80;;;5.60;99.90;;;;;;4996796;28;20344;-73
2022/04/16 02:13:44;;;;;;;31.98;20.38;;;5.50;99.90;;;;;;4996541;28;20048;-72
2022/04/16 02:16:09;;;;;;;37.10;22.25;;;5.60;99.90;;;;;;4996507;28;20473;-72
2022/04/16 02:18:36;;;;;;;40.08;23.38;;;5.60;99.90;;;;;;4996309;28;20050;-71
2022/04/16 02:21:02;;;;;;;37.85;23.10;;;5.70;99.90;;;;;;4996485;28;20047;-72
2022/04/16 02:23:28;;;;;;;35.55;22.00;;;5.70;99.90;;;;;;4996185;28;20046;-73
2022/04/16 02:25:53;;;;;;;42.33;24.00;;;5.80;99.90;;;;;;4976107;28;20051;-71
2022/04/16 02:28:21;;;;;;;40.35;25.67;;;5.90;99.90;;;;;;4977062;28;20051;-71
2022/04/16 02:30:48;;;;;;;35.80;23.35;;;5.90;99.90;;;;;;4977064;28;20050;-72
2022/04/16 02:33:13;;;;;;;41.75;24.65;;;6.00;99.90;;;;;;4976891;28;20124;-73
2022/04/16 02:35:39;;;;;;;44.28;27.20;;;6.10;99.90;;;;;;4976923;28;20098;-72
2022/04/16 02:38:05;;;;;;;42.95;26.48;;;6.20;99.90;;;;;;4977018;28;20363;-72
2022/04/16 02:40:30;;;;;;;46.13;28.85;;;6.20;99.90;;;;;;4976861;28;20054;-72
2022/04/16 02:42:56;;;;;;;45.47;27.10;;;6.40;99.90;;;;;;4976353;28;20046;-72
2022/04/16 02:48:05;;;;;;;;;;;6.60;99.90;;;;;;4977008;28;20047;-72
2022/04/16 02:50:31;;;;;;;45.72;26.90;;;6.70;99.90;;;;;;4975608;28;19922;-72
2022/04/16 02:52:58;;;;;;;46.55;27.13;;;6.70;99.90;;;;;;4976056;28;20185;-72
2022/04/16 02:55:25;;;;;;;48.78;27.58;;;6.80;99.90;;;;;;4976480;28;20042;-74
2022/04/16 02:57:51;;;;;;;44.78;27.10;;;6.90;99.90;;;;;;4975998;28;20118;-70
2022/04/16 03:00:20;;;;;;;41.85;26.50;;;6.90;99.90;;;;;;4959378;28;20062;-72
2022/04/16 03:02:47;;;;;;;40.42;26.30;;;7.00;99.90;;;;;;4976569;28;20054;-72
2022/04/16 03:05:13;;;;;;;41.45;27.00;;;7.10;99.90;;;;;;4976404;28;20117;-74
2022/04/16 03:07:39;;;;;;;40.33;25.25;;;7.20;99.90;;;;;;4976135;28;20122;-70
2022/04/16 03:10:08;;;;;;;37.55;25.48;;;7.60;99.90;;;;;;4975566;28;20198;-73
2022/04/16 03:12:41;;;;;;;40.83;27.15;;;7.30;99.90;;;;;;4974971;28;20106;-73
2022/04/16 03:17:52;;;;;;;41.45;28.30;;;7.50;99.90;;;;;;4975200;28;20129;-70
2022/04/16 03:20:18;;;;;;;43.22;29.27;;;7.60;99.90;;;;;;4974696;28;20051;-72
2022/04/16 03:22:45;;;;;;;43.38;29.75;;;7.60;99.90;;;;;;4975841;28;20045;-71
2022/04/16 03:25:10;;;;;;;40.42;27.63;;;7.70;99.90;;;;;;4983929;28;20116;-72
2022/04/16 03:27:39;;;;;;;44.78;30.67;;;7.70;99.90;;;;;;4995181;28;20050;-71
2022/04/16 03:30:06;;;;;;;40.63;28.05;;;7.80;99.90;;;;;;4978513;28;20051;-72
2022/04/16 03:32:31;;;;;;;43.33;28.80;;;7.80;99.90;;;;;;4995483;28;20057;-72
2022/04/16 03:34:57;;;;;;;45.40;28.65;;;7.80;99.90;;;;;;4995460;28;20050;-72
2022/04/16 03:37:27;;;;;;;45.70;30.27;;;7.90;99.90;;;;;;4995499;28;20042;-73
2022/04/16 03:39:52;;;;;;;45.38;30.30;;;7.90;99.90;;;;;;4994911;28;20093;-71
2022/04/16 03:42:19;;;;;;;42.28;29.88;;;7.90;99.90;;;;;;4995399;28;20078;-72
2022/04/16 03:44:44;;;;;;;45.25;30.63;;;8.10;99.90;;;;;;4978311;28;20133;-73
2022/04/16 03:47:11;;;;;;;48.42;31.10;;;8.00;99.90;;;;;;4995540;28;20141;-71
2022/04/16 03:49:37;;;;;;;45.13;31.10;;;8.00;99.90;;;;;;4977894;28;20074;-71
2022/04/16 03:52:03;;;;;;;45.47;30.92;;;8.00;99.90;;;;;;4978240;28;20058;-71
2022/04/16 04:00:00;;;;;;;48.92;33.80;;;8.00;99.90;;;;;;4999006;28;20054;-70
2022/04/16 04:02:28;;;;;;;51.25;34.42;;;8.00;99.90;;;;;;4981913;28;20082;-72
2022/04/16 04:04:55;;;;;;;51.08;34.78;;;8.20;99.90;;;;;;4981950;28;20065;-71
2022/04/16 04:07:20;;;;;;;49.35;34.15;;;7.90;99.90;;;;;;4998838;28;20046;-70
2022/04/16 04:09:46;;;;;;;50.75;34.85;;;8.00;99.90;;;;;;4998853;28;20390;-72
2022/04/16 04:12:13;;;;;;;52.08;35.22;;;8.00;99.90;;;;;;4999034;28;20125;-73
2022/04/16 04:14:40;;;;;;;49.67;34.45;;;8.00;99.90;;;;;;4966045;28;20055;-72
2022/04/16 04:17:07;;;;;;;50.88;33.80;;;8.00;99.90;;;;;;4981446;28;20038;-73
2022/04/16 04:19:35;;;;;;;54.17;34.15;;;8.00;99.90;;;;;;4998609;28;20054;-72
2022/04/16 04:22:02;;;;;;;51.28;36.28;;;8.00;99.90;;;;;;4998622;28;20179;-72
2022/04/16 04:24:28;;;;;;;48.97;33.78;;;8.00;99.90;;;;;;4998264;28;20042;-72
2022/04/16 04:27:00;;;;;;;54.40;34.08;;;8.00;99.90;;;;;;4998236;28;20073;-71
2022/04/16 04:29:27;;;;;;;50.17;34.47;;;8.00;99.90;;;;;;4998760;28;20116;-72
2022/04/16 04:31:53;;;;;;;50.22;33.83;;;7.90;99.90;;;;;;4981113;28;20462;-72
2022/04/16 04:34:19;;;;;;;54.13;35.65;;;7.90;99.90;;;;;;4998178;28;20499;-73
2022/04/16 04:36:45;;;;;;;48.25;33.08;;;7.90;99.90;;;;;;4981573;28;20062;-72
2022/04/16 04:39:12;;;;;;;45.70;32.55;;;7.90;99.90;;;;;;4980819;28;20129;-73
2022/04/16 04:41:38;;;;;;;48.22;31.45;;;7.90;99.90;;;;;;4981292;28;20046;-72
2022/04/16 04:44:04;;;;;;;49.15;33.60;;;7.90;99.90;;;;;;4981166;28;20179;-72
2022/04/16 04:46:30;;;;;;;50.67;33.25;;;7.90;99.90;;;;;;4997967;28;20049;-72
2022/04/16 04:48:56;;;;;;;50.20;32.95;;;7.90;99.90;;;;;;4998350;28;20050;-72
2022/04/16 04:51:22;;;;;;;47.20;33.58;;;7.90;99.90;;;;;;4998036;28;20105;-72
2022/04/16 04:53:47;;;;;;;52.33;34.65;;;7.90;99.90;;;;;;4980962;28;20062;-74
2022/04/16 04:56:13;;;;;;;48.75;33.45;;;7.90;99.90;;;;;;4997679;28;20088;-72
2022/04/16 04:58:38;;;;;;;51.30;35.70;;;7.90;99.90;;;;;;4997882;28;20043;-73
2022/04/16 05:01:04;;;;;;;49.40;35.70;;;7.90;99.90;;;;;;4997843;28;20039;-73
2022/04/16 05:03:29;;;;;;;49.20;32.42;;;7.90;99.90;;;;;;4981332;28;20046;-71
2022/04/16 05:05:55;;;;;;;46.38;32.13;;;7.90;99.90;;;;;;4997674;28;20054;-71
2022/04/16 05:08:21;;;;;;;44.63;31.10;;;8.00;99.90;;;;;;4997660;28;20046;-72
2022/04/16 05:10:46;;;;;;;46.63;32.88;;;7.90;99.90;;;;;;4997703;28;20093;-70
2022/04/16 05:13:12;;;;;;;46.88;32.65;;;7.90;99.90;;;;;;4997649;28;20050;-72
2022/04/16 05:15:37;;;;;;;43.80;29.75;;;8.00;99.90;;;;;;4980393;28;20038;-71
2022/04/16 05:18:03;;;;;;;42.65;29.63;;;8.00;99.90;;;;;;4980766;28;20046;-72
2022/04/16 05:20:29;;;;;;;44.00;29.02;;;8.00;99.90;;;;;;4997385;28;20144;-71
2022/04/16 05:22:54;;;;;;;40.13;28.45;;;8.00;99.90;;;;;;4997807;28;20045;-71
2022/04/16 05:25:20;;;;;;;39.85;26.60;;;8.00;99.90;;;;;;4980803;28;20519;-72
2022/04/16 05:27:46;;;;;;;39.00;28.02;;;7.90;99.90;;;;;;4997381;28;20120;-70
2022/04/16 05:30:22;;;;;;;36.95;25.58;;;8.00;99.90;;;;;;4963140;28;20081;-71
2022/04/16 05:32:49;;;;;;;35.55;23.23;;;8.00;99.90;;;;;;4997340;28;20069;-70
2022/04/16 05:35:15;;;;;;;29.73;20.60;;;8.00;99.90;;;;;;4997340;28;20104;-71
2022/04/16 05:37:42;;;;;;;29.40;18.45;;;8.10;99.90;;;;;;4997413;28;20042;-71
2022/04/16 05:40:08;;;;;;;26.50;17.15;;;8.10;99.90;;;;;;4979842;28;20161;-71
2022/04/16 05:42:41;;;;;;;25.58;16.88;;;8.20;99.90;;;;;;4997361;28;20042;-71
2022/04/16 05:45:09;;;;;;;26.50;17.10;;;8.20;99.90;;;;;;4980965;28;20420;-69
2022/04/16 05:47:35;;;;;;;28.30;17.17;;;8.20;99.90;;;;;;4997963;28;20601;-72
2022/04/16 05:50:00;;;;;;;24.08;15.60;;;8.20;99.90;;;;;;4997453;28;20042;-72
2022/04/16 05:52:26;;;;;;;25.55;17.35;;;8.20;99.90;;;;;;4997009;28;20042;-69
2022/04/16 05:54:52;;;;;;;24.63;17.17;;;8.20;99.90;;;;;;4996909;28;20042;-71
2022/04/16 05:57:19;;;;;;;24.17;16.67;;;8.20;99.90;;;;;;4996382;28;20054;-69
2022/04/16 05:59:45;;;;;;;27.52;17.45;;;8.20;99.90;;;;;;4996636;28;20129;-70
2022/04/16 06:02:11;;;;;;;23.90;16.65;;;8.30;99.90;;;;;;4996368;28;20097;-68
2022/04/16 06:04:37;;;;;;;23.42;15.52;;;8.40;99.90;;;;;;4996655;28;20042;-70
2022/04/16 06:07:02;;;;;;;23.58;15.65;;;8.60;99.90;;;;;;4996961;28;20096;-70
2022/04/16 06:09:28;;;;;;;22.70;14.75;;;9.20;99.90;;;;;;4996678;28;20038;-70
2022/04/16 06:12:01;;;;;;;22.17;14.93;;;10.00;99.90;;;;;;4996631;28;20065;-71
2022/04/16 06:14:27;;;;;;;22.05;14.35;;;11.10;99.90;;;;;;4983396;28;20046;-67
2022/04/16 06:16:52;;;;;;;18.58;13.27;;;11.50;99.90;;;;;;4996281;28;20494;-68
2022/04/16 06:19:18;;;;;;;20.95;13.88;;;12.40;99.90;;;;;;4995762;28;20042;-70
2022/04/16 06:21:43;;;;;;;20.05;13.27;;;13.30;99.90;;;;;;4996368;28;20410;-70
2022/04/16 06:24:09;;;;;;;17.85;12.25;;;13.70;99.90;;;;;;4996302;28;20046;-69
2022/04/16 06:26:35;;;;;;;16.52;11.85;;;14.10;99.90;;;;;;4996312;28;20362;-71
2022/04/16 06:29:01;;;;;;;17.73;11.57;;;14.40;99.90;;;;;;4996159;28;20359;-69
2022/04/16 06:31:26;;;;;;;17.58;10.75;;;14.90;99.90;;;;;;4996708;28;20046;-69
2022/04/16 06:33:52;;;;;;;18.80;12.48;;;15.20;99.90;;;;;;4996084;28;20519;-69
2022/04/16 06:36:17;;;;;;;17.50;10.88;;;15.30;99.90;;;;;;4996102;28;20049;-71
2022/04/16 06:38:43;;;;;;;16.83;11.40;;;15.10;99.90;;;;;;4996172;28;20034;-72
2022/04/16 06:41:08;;;;;;;16.00;10.50;;;15.50;99.90;;;;;;4995364;28;20050;-72
2022/04/16 06:43:34;;;;;;;17.50;10.68;;;16.10;99.90;;;;;;4996567;28;20038;-69
2022/04/16 06:45:59;;;;;;;15.05;10.38;;;16.40;99.90;;;;;;4980606;28;20069;-69
2022/04/16 06:48:25;;;;;;;15.60;10.90;;;15.80;99.90;;;;;;4979160;28;20054;-70
2022/04/16 06:50:50;;;;;;;14.88;9.93;;;14.50;99.90;;;;;;4995751;28;20483;-70
2022/04/16 06:53:16;;;;;;;16.15;9.60;;;13.50;99.90;;;;;;4996112;28;20118;-69
2022/04/16 06:55:43;;;;;;;13.80;8.85;;;12.80;99.90;;;;;;4978827;28;20058;-68
2022/04/16 06:58:09;;;;;;;14.13;8.52;;;12.20;99.90;;;;;;4996022;28;20042;-70
2022/04/16 07:00:34;;;;;;;14.43;9.55;;;11.80;99.90;;;;;;4978725;28;20490;-69
2022/04/16 07:03:00;;;;;;;14.68;9.38;;;11.60;99.90;;;;;;4995755;28;20461;-69
2022/04/16 07:05:25;;;;;;;15.02;9.20;;;11.30;99.90;;;;;;4995910;28;20478;-69
2022/04/16 07:07:51;;;;;;;15.70;8.70;;;11.10;99.90;;;;;;4995469;28;20046;-69
2022/04/16 07:10:17;;;;;;;11.88;6.63;;;11.00;99.90;;;;;;4995458;28;20061;-70
2022/04/16 07:12:42;;;;;;;13.45;7.55;;;10.90;99.90;;;;;;4995294;28;20057;-68
2022/04/16 07:15:08;;;;;;;9.75;6.03;;;10.70;99.90;;;;;;4995429;28;20039;-68
2022/04/16 07:17:34;;;;;;;11.98;6.78;;;10.40;99.90;;;;;;4994916;28;20046;-71
2022/04/16 07:19:59;;;;;;;11.50;6.15;;;10.40;99.90;;;;;;4995200;28;20042;-70
2022/04/16 07:22:25;;;;;;;11.63;6.10;;;10.50;99.90;;;;;;4995315;28;20053;-68
2022/04/16 07:24:51;;;;;;;17.05;9.18;;;10.50;99.90;;;;;;4978097;28;20057;-70
2022/04/16 07:27:17;;;;;;;14.23;9.27;;;10.40;99.90;;;;;;4994738;28;20624;-70
2022/04/16 07:29:43;;;;;;;14.60;9.20;;;10.30;99.90;;;;;;4994413;28;20126;-69
2022/04/16 07:32:08;;;;;;;20.23;9.82;;;10.10;99.90;;;;;;4995282;28;20078;-70
2022/04/16 07:34:34;;;;;;;14.98;10.00;;;10.00;99.90;;;;;;4994733;28;20050;-69
2022/04/16 07:37:00;;;;;;;19.10;9.95;;;10.00;99.90;;;;;;4995286;28;20046;-68
2022/04/16 07:39:25;;;;;;;16.35;9.50;;;10.10;99.90;;;;;;4978104;28;20061;-70
2022/04/16 07:41:51;;;;;;;16.88;9.55;;;10.10;99.90;;;;;;4994857;28;20050;-69
2022/04/16 07:44:17;;;;;;;14.57;8.85;;;10.00;99.90;;;;;;4995338;28;20514;-69
2022/04/16 07:46:43;;;;;;;12.93;8.20;;;10.00;99.90;;;;;;4995041;28;20045;-70
2022/04/16 07:49:09;;;;;;;15.60;8.75;;;10.10;99.90;;;;;;4995420;28;20392;-70
2022/04/16 07:51:34;;;;;;;13.38;7.88;;;10.10;99.90;;;;;;4995176;28;20415;-69
2022/04/16 07:54:00;;;;;;;15.65;8.80;;;10.20;99.90;;;;;;4995191;28;20423;-69
2022/04/16 07:56:26;;;;;;;13.45;7.65;;;10.20;99.90;;;;;;4977510;28;20478;-72
2022/04/16 07:58:54;;;;;;;11.80;7.38;;;10.10;99.90;;;;;;4977915;28;20470;-69
2022/04/16 08:01:20;;;;;;;12.15;7.63;;;10.20;99.90;;;;;;4995040;28;20042;-72
2022/04/16 08:03:45;;;;;;;12.48;7.53;;;10.00;99.90;;;;;;4978843;28;20525;-69
2022/04/16 08:06:11;;;;;;;12.95;6.93;;;10.10;99.90;;;;;;4996011;28;20047;-69
2022/04/16 08:08:37;;;;;;;10.30;6.60;;;10.10;99.90;;;;;;4956047;29;20070;-71
2022/04/16 08:11:02;;;;;;;9.85;5.88;;;10.20;99.90;;;;;;4954740;29;20475;-70
2022/04/16 08:13:28;;;;;;;9.13;5.60;;;10.30;99.90;;;;;;4938005;29;20051;-71
2022/04/16 08:15:53;;;;;;;10.70;5.15;;;11.00;99.90;;;;;;4954003;29;20043;-72
2022/04/16 08:18:19;;;;;;;8.57;5.50;;;11.80;99.90;;;;;;4938352;29;20550;-71
2022/04/16 08:20:45;;;;;;;9.65;5.13;;;12.60;99.90;;;;;;4954029;29;20063;-70
2022/04/16 08:23:11;;;;;;;7.88;4.95;;;13.10;99.90;;;;;;4938517;29;20194;-71
2022/04/16 08:28:04;;;;;;;8.68;4.43;;;14.40;99.90;;;;;;4954125;28;20047;-71
2022/04/16 08:30:30;;;;;;;7.25;4.28;;;14.10;99.90;;;;;;4953986;28;20051;-71
2022/04/16 08:32:57;;;;;;;6.80;4.28;;;14.30;99.90;;;;;;4954092;29;20051;-71
2022/04/16 08:35:22;;;;;;;6.10;3.58;;;14.50;99.90;;;;;;4953915;29;20059;-71
2022/04/16 08:37:49;;;;;;;7.40;3.90;;;14.50;99.90;;;;;;4953729;29;20148;-70
2022/04/16 08:40:16;;;;;;;8.23;3.88;;;14.40;99.30;;;;;;4992554;28;20086;-69
2022/04/16 08:42:48;;;;;;;8.20;3.85;;;14.70;99.90;;;;;;4989251;28;20109;-69
2022/04/16 08:45:14;;;;;;;7.10;3.88;;;15.00;99.90;;;;;;4997975;28;20049;-68
2022/04/16 08:47:40;;;;;;;5.78;3.40;;;15.30;99.60;;;;;;4998083;28;20463;-68
2022/04/16 08:50:11;;;;;;;6.60;3.42;;;15.50;99.10;;;;;;4998104;28;20050;-71
2022/04/16 08:52:38;;;;;;;7.03;4.07;;;15.50;98.80;;;;;;4997799;28;20573;-71
2022/04/16 08:55:07;;;;;;;5.60;3.40;;;15.30;97.60;;;;;;4997380;28;20050;-71
2022/04/16 08:57:33;;;;;;;7.35;3.10;;;14.90;96.50;;;;;;4997648;28;20061;-72
2022/04/16 08:59:58;;;;;;;9.02;3.58;;;14.50;98.50;;;;;;4997641;28;20363;-70
2022/04/16 09:02:26;;;;;;;5.55;3.30;;;14.00;96.30;;;;;;4997112;28;20117;-70
2022/04/16 09:05:09;;;;;;;5.05;3.50;;;13.70;98.20;;;;;;4998110;28;20185;-69
2022/04/16 09:07:49;;;;;;;7.15;3.53;;;13.60;97.50;;;;;;4980924;28;20050;-69
2022/04/16 09:10:16;;;;;;;6.35;2.88;;;13.20;97.50;;;;;;4980952;28;20050;-68
2022/04/16 09:12:44;;;;;;;6.22;3.08;;;12.90;97.30;;;;;;4980757;28;20042;-70
2022/04/16 09:15:12;;;;;;;5.50;3.05;;;12.70;98.70;;;;;;4997744;28;20054;-69
2022/04/16 09:17:38;;;;;;;5.53;2.83;;;12.50;97.90;;;;;;4979936;28;20451;-72
2022/04/16 09:20:10;;;;;;;6.05;2.67;;;12.50;97.40;;;;;;4997701;28;20455;-70
2022/04/16 09:22:37;;;;;;;9.10;3.83;;;12.60;98.10;;;;;;4997133;28;20057;-72
2022/04/16 09:25:04;;;;;;;8.73;2.78;;;13.00;97.60;;;;;;4997422;28;20034;-71
2022/04/16 09:27:45;;;;;;;5.30;2.90;;;13.20;96.70;;;;;;4997150;28;20394;-71
2022/04/16 09:30:12;;;;;;;4.78;2.40;;;13.40;94.60;;;;;;4997058;28;20053;-71
2022/04/16 09:32:45;;;;;;;3.88;2.15;;;13.70;94.50;;;;;;4977403;28;20149;-70
2022/04/16 09:35:36;;;;;;;3.53;1.92;;;14.00;91.90;;;;;;4980145;28;20078;-69
2022/04/16 09:38:04;;;;;;;4.07;1.85;;;14.30;90.70;;;;;;4997398;28;20049;-71
2022/04/16 09:40:31;;;;;;;5.80;2.15;;;14.40;85.10;;;;;;4996896;28;20046;-73
2022/04/16 09:43:00;;;;;;;4.47;2.03;;;14.10;87.60;;;;;;4997179;28;20062;-70
2022/04/16 09:45:27;;;;;;;2.80;1.58;;;13.60;86.70;;;;;;4997150;28;20046;-71
2022/04/16 09:47:53;;;;;;;3.92;1.73;;;13.20;90.00;;;;;;4978878;28;20046;-71
2022/04/16 09:50:20;;;;;;;4.13;1.95;;;12.80;90.60;;;;;;4997110;28;20484;-70
2022/04/16 09:53:08;;;;;;;5.35;1.70;;;12.70;89.40;;;;;;4995268;28;20042;-68
2022/04/16 09:55:36;;;;;;;4.70;1.67;;;12.70;90.90;;;;;;4994772;28;20057;-68
2022/04/16 09:58:04;;;;;;;3.90;1.70;;;12.70;86.20;;;;;;4996909;28;20379;-69
2022/04/16 10:00:32;;;;;;;4.60;1.73;;;12.60;85.90;;;;;;4994884;28;20050;-70
2022/04/16 10:02:59;;;;;;;3.63;1.50;;;12.60;87.70;;;;;;4996837;28;20042;-69
2022/04/16 10:05:25;;;;;;;2.00;1.20;;;12.60;88.50;;;;;;4996060;28;20045;-68
2022/04/16 10:07:55;;;;;;;3.28;1.45;;;12.70;86.00;;;;;;4994109;28;20536;-69
2022/04/16 10:10:41;;;;;;;2.30;1.30;;;12.60;83.50;;;;;;4996215;28;20098;-69
2022/04/16 10:13:10;;;;;;;2.88;1.30;;;12.70;86.70;;;;;;4995842;28;20049;-69
2022/04/16 10:16:00;;;;;;;3.15;1.20;;;12.70;83.50;;;;;;4992885;28;20050;-68
2022/04/16 10:18:26;;;;;;;2.60;1.20;;;12.70;85.60;;;;;;4995839;28;20060;-70
2022/04/16 10:21:00;;;;;;;1.95;0.93;;;12.90;84.90;;;;;;4996019;28;20061;-69
2022/04/16 10:23:40;;;;;;;1.58;0.90;;;13.00;77.40;;;;;;4989123;28;20054;-68
2022/04/16 10:26:10;;;;;;;7.88;1.40;;;13.00;76.70;;;;;;4978049;28;20463;-69
2022/04/16 10:28:42;;;;;;;2.70;1.15;;;13.00;72.30;;;;;;4996287;28;20057;-68
2022/04/16 10:31:28;;;;;;;2.50;1.17;;;13.20;75.70;;;;;;4978556;28;20360;-69
2022/04/16 10:34:11;;;;;;;4.57;1.08;;;13.40;79.20;;;;;;4995335;28;20136;-70
2022/04/16 10:36:41;;;;;;;2.65;1.30;;;13.60;76.40;;;;;;4991489;28;20125;-68
2022/04/16 10:39:14;;;;;;;2.30;1.10;;;13.60;77.30;;;;;;4995365;28;20046;-70
2022/04/16 10:41:39;;;;;;;3.33;1.30;;;13.80;78.60;;;;;;4978992;28;20108;-69
2022/04/16 10:44:09;;;;;;;3.83;1.27;;;13.80;77.30;;;;;;4978674;28;20414;-68
2022/04/16 10:46:48;;;;;;;2.50;1.20;;;13.90;75.20;;;;;;4996284;28;20056;-71
2022/04/16 10:49:15;;;;;;;1.92;1.17;;;13.80;75.00;;;;;;4978705;28;20137;-68
2022/04/16 10:51:41;;;;;;;3.63;1.63;;;13.80;77.60;;;;;;4995637;28;20128;-69
2022/04/16 10:54:14;;;;;;;2.85;1.23;;;13.80;75.60;;;;;;4978129;28;20046;-69
2022/04/16 10:56:45;;;;;;;2.80;1.33;;;13.80;76.30;;;;;;4995234;28;20085;-69
2022/04/16 10:59:11;;;;;;;3.15;1.30;;;13.90;76.00;;;;;;4995283;28;20204;-70
2022/04/16 11:01:37;;;;;;;2.58;1.30;;;14.00;79.60;;;;;;4996186;28;20104;-70
2022/04/16 11:04:14;;;;;;;3.70;1.45;;;14.10;75.20;;;;;;4994684;28;20045;-70
2022/04/16 11:06:45;;;;;;;2.83;1.30;;;14.10;73.30;;;;;;4991629;28;20626;-72
2022/04/16 11:09:13;;;;;;;2.00;1.10;;;14.00;73.70;;;;;;4995238;28;20474;-69
2022/04/16 11:11:41;;;;;;;2.28;1.08;;;14.10;72.40;;;;;;4995132;28;20056;-67
2022/04/16 11:14:08;;;;;;;2.22;1.10;;;14.10;70.50;;;;;;4995020;28;20042;-69
2022/04/16 11:16:45;;;;;;;1.67;1.08;;;14.00;70.60;;;;;;4995478;28;20451;-70
2022/04/16 11:19:12;;;;;;;4.47;1.10;;;14.10;70.30;;;;;;4994778;28;20046;-70
2022/04/16 11:21:38;;;;;;;3.97;1.10;;;14.30;72.20;;;;;;4995551;28;20046;-70
2022/04/16 11:24:05;;;;;;;2.33;1.05;;;14.40;69.30;;;;;;4994132;28;20380;-71
2022/04/16 11:34:53;;;;;;;3.13;1.35;;;14.50;69.80;;;;;;4995000;28;20046;-68
2022/04/16 11:37:19;;;;;;;2.30;1.00;;;14.50;71.80;;;;;;4995367;28;20432;-68
2022/04/16 11:39:46;;;;;;;2.80;1.10;;;14.60;68.50;;;;;;4978075;28;20112;-67
2022/04/16 11:42:12;;;;;;;3.70;1.15;;;14.60;66.20;;;;;;4994950;28;20454;-68
2022/04/16 11:44:41;;;;;;;3.08;1.10;;;14.70;65.20;;;;;;4995174;28;20050;-69
2022/04/16 11:47:10;;;;;;;2.75;1.75;;;14.60;63.80;;;;;;4982512;28;20046;-71
2022/04/16 11:49:37;;;;;;;3.10;1.13;;;14.50;67.70;;;;;;5001693;28;20356;-70
2022/04/16 11:52:04;;;;;;;7.53;1.20;;;14.60;66.90;;;;;;5005058;28;20074;-69
2022/04/16 11:54:30;;;;;;;2.85;1.20;;;14.60;61.80;;;;;;5004644;28;20121;-68
2022/04/16 11:56:56;;;;;;;3.65;1.23;;;14.60;62.90;;;;;;4987673;28;20053;-68
2022/04/16 11:59:26;;;;;;;2.35;1.10;;;14.70;60.80;;;;;;4995137;28;20125;-68
2022/04/16 12:02:05;;;;;;;1.95;1.27;;;14.70;64.50;;;;;;4994914;28;20101;-69
2022/04/16 12:04:44;;;;;;;2.90;1.30;;;14.70;61.50;;;;;;4994832;28;20057;-72
2022/04/16 12:07:17;;;;;;;2.60;1.67;;;14.70;61.40;;;;;;4994864;28;20129;-71
2022/04/16 12:09:47;;;;;;;2.88;1.55;;;14.70;61.90;;;;;;4995025;28;20042;-71
2022/04/16 12:12:22;;;;;;;2.50;1.20;;;14.80;64.50;;;;;;4994489;28;20529;-71
2022/04/16 12:14:53;;;;;;;1.85;1.20;;;14.90;61.90;;;;;;4995027;28;20431;-72
2022/04/16 12:17:24;;;;;;;2.95;1.20;;;15.00;64.90;;;;;;4997571;28;20518;-72
2022/04/16 12:19:56;;;;;;;2.95;1.50;;;14.90;61.80;;;;;;4998732;28;20057;-70
2022/04/16 12:22:23;;;;;;;7.70;1.70;;;14.90;63.20;;;;;;4998197;28;20046;-69
2022/04/16 12:24:48;;;;;;;3.45;1.38;;;15.10;65.80;;;;;;4997916;28;20078;-70
2022/04/16 12:27:27;;;;;;;3.10;1.20;;;15.20;65.20;;;;;;4999077;28;20093;-70
2022/04/16 12:29:56;;;;;;;5.72;2.78;;;15.30;64.20;;;;;;4998297;28;20455;-71
2022/04/16 12:32:28;;;;;;;2.33;1.10;;;15.30;63.40;;;;;;4998550;28;20101;-71
2022/04/16 12:34:53;;;;;;;5.03;2.03;;;15.20;60.90;;;;;;4981908;28;20054;-71
2022/04/16 12:37:22;;;;;;;3.38;1.67;;;15.40;65.00;;;;;;4998633;28;20485;-72
2022/04/16 12:39:49;;;;;;;17.30;8.70;;;15.30;60.70;;;;;;4998479;28;20046;-73
2022/04/16 12:42:15;;;;;;;6.93;4.18;;;15.30;61.10;;;;;;4998204;28;20125;-71
2022/04/16 12:44:40;;;;;;;2.97;1.58;;;15.50;62.40;;;;;;4997919;28;20522;-71
2022/04/16 12:47:07;;;;;;;4.40;1.40;;;15.30;62.00;;;;;;4981522;28;20054;-72
2022/04/16 12:49:33;;;;;;;2.38;1.20;;;15.40;62.50;;;;;;4998290;28;20070;-72
2022/04/16 12:51:58;;;;;;;2.85;1.35;;;15.40;61.00;;;;;;4998200;28;20057;-72
2022/04/16 12:54:24;;;;;;;3.78;1.83;;;15.30;60.70;;;;;;4980787;28;20042;-71
2022/04/16 12:56:49;;;;;;;3.05;1.35;;;15.30;62.50;;;;;;4997543;28;20046;-71
2022/04/16 12:59:15;;;;;;;3.55;1.35;;;15.40;61.90;;;;;;4997875;28;20188;-73
2022/04/16 13:01:41;;;;;;;5.30;1.02;;;15.40;63.10;;;;;;4997925;28;20062;-72
2022/04/16 13:04:06;;;;;;;3.38;1.25;;;15.40;61.50;;;;;;4998449;28;20127;-73